Time;durP1;ratioP1;P1;durP2;ratioP2;P2;SDS_P1;SDS_P2;PMS_P1;PMS_P2;Temp;Humidity;BMP_temperature;BMP_pressure;BME280_temperature;BME280_humidity;BME280_pressure;Samples;Min_cycle;Max_cycle;Signal;HPM_P1;HPM_P2
2021/10/23 00:00:25;;;;;;;10.30;1.90;;;;;;;;;;6278693;22;20144;-61
2021/10/23 00:02:51;;;;;;;6.93;1.45;;;;;;;;;;6278551;22;20218;-61
2021/10/23 00:05:17;;;;;;;7.25;1.88;;;;;;;;;;6278676;22;20171;-60
2021/10/23 00:07:43;;;;;;;9.75;1.85;;;;;;;;;;6278537;22;20214;-60
2021/10/23 00:10:09;;;;;;;9.73;1.55;;;;;;;;;;6278562;22;20171;-60
2021/10/23 00:12:35;;;;;;;11.00;1.70;;;;;;;;;;6278264;22;20197;-60
2021/10/23 00:15:01;;;;;;;9.20;1.52;;;;;;;;;;6251313;22;20143;-61
2021/10/23 00:17:27;;;;;;;6.28;1.50;;;;;;;;;;6278332;22;20570;-60
2021/10/23 00:19:53;;;;;;;10.35;1.95;;;;;;;;;;6278288;22;20151;-60
2021/10/23 00:22:19;;;;;;;11.48;1.95;;;;;;;;;;6278130;22;20230;-61
2021/10/23 00:24:45;;;;;;;8.50;1.75;;;;;;;;;;6277935;22;20191;-60
2021/10/23 00:27:10;;;;;;;10.40;1.55;;;;;;;;;;6277883;22;20482;-61
2021/10/23 00:29:37;;;;;;;9.18;1.48;;;;;;;;;;6277830;22;20185;-60
2021/10/23 00:32:03;;;;;;;9.23;1.80;;;;;;;;;;6278298;22;20136;-60
2021/10/23 00:34:29;;;;;;;8.82;1.42;;;;;;;;;;6277750;22;20139;-61
2021/10/23 00:36:55;;;;;;;8.77;1.70;;;;;;;;;;6277905;22;20269;-60
2021/10/23 00:39:20;;;;;;;7.38;1.23;;;;;;;;;;6278045;22;20147;-61
2021/10/23 00:41:46;;;;;;;9.27;1.40;;;;;;;;;;6277749;22;20826;-59
2021/10/23 00:44:48;;;;;;;10.50;2.33;;;;;;;;;;6277972;22;20234;-60
2021/10/23 00:47:16;;;;;;;8.70;2.17;;;;;;;;;;6184498;23;20440;-60
2021/10/23 00:49:43;;;;;;;11.38;1.33;;;;;;;;;;6184458;23;20156;-59
2021/10/23 00:52:09;;;;;;;9.15;1.58;;;;;;;;;;6184310;23;20146;-60
2021/10/23 00:54:36;;;;;;;11.35;2.15;;;;;;;;;;6184342;23;20216;-60
2021/10/23 00:57:03;;;;;;;12.90;1.75;;;;;;;;;;6184635;23;20495;-59
2021/10/23 00:59:29;;;;;;;9.27;2.10;;;;;;;;;;6184367;23;20149;-60
2021/10/23 01:01:55;;;;;;;8.93;1.80;;;;;;;;;;6184050;23;20474;-60
2021/10/23 01:04:22;;;;;;;10.20;1.83;;;;;;;;;;6183426;23;20181;-61
2021/10/23 01:06:48;;;;;;;8.88;2.28;;;;;;;;;;6184048;23;20371;-61
2021/10/23 01:09:15;;;;;;;12.00;2.20;;;;;;;;;;6183856;23;20146;-61
2021/10/23 01:11:41;;;;;;;16.50;2.33;;;;;;;;;;6184212;23;20328;-61
2021/10/23 01:14:11;;;;;;;10.95;1.80;;;;;;;;;;6183988;23;20157;-61
2021/10/23 01:16:37;;;;;;;6.03;1.40;;;;;;;;;;6184113;23;20133;-61
2021/10/23 01:19:03;;;;;;;9.38;1.98;;;;;;;;;;6183930;23;20157;-61
2021/10/23 01:21:29;;;;;;;8.13;1.80;;;;;;;;;;6243066;22;20155;-60
2021/10/23 01:23:55;;;;;;;11.40;1.80;;;;;;;;;;6277688;22;20140;-61
2021/10/23 01:26:24;;;;;;;8.88;1.80;;;;;;;;;;6276798;22;20175;-61
2021/10/23 01:28:51;;;;;;;8.65;1.77;;;;;;;;;;6277197;22;20140;-61
2021/10/23 01:31:17;;;;;;;12.88;1.85;;;;;;;;;;6277032;22;20222;-61
2021/10/23 01:33:43;;;;;;;9.73;1.75;;;;;;;;;;6277008;22;20135;-61
2021/10/23 01:36:10;;;;;;;12.73;1.95;;;;;;;;;;6277000;22;20151;-61
2021/10/23 01:38:36;;;;;;;10.45;1.98;;;;;;;;;;6277319;22;20222;-61
2021/10/23 01:41:03;;;;;;;10.02;2.15;;;;;;;;;;6276927;22;20564;-61
2021/10/23 01:43:29;;;;;;;10.25;2.58;;;;;;;;;;6277568;22;20147;-59
2021/10/23 01:45:55;;;;;;;6.43;1.35;;;;;;;;;;6276774;22;20589;-60
2021/10/23 01:48:21;;;;;;;5.25;1.42;;;;;;;;;;6277550;22;20140;-59
2021/10/23 01:50:47;;;;;;;11.50;1.80;;;;;;;;;;6276912;22;20554;-60
2021/10/23 01:53:13;;;;;;;10.20;2.25;;;;;;;;;;6277192;22;20135;-61
2021/10/23 01:55:38;;;;;;;8.45;2.22;;;;;;;;;;6276831;22;20144;-60
2021/10/23 01:58:04;;;;;;;8.25;1.73;;;;;;;;;;6276893;22;20255;-60
2021/10/23 02:00:31;;;;;;;9.80;1.45;;;;;;;;;;6277145;22;20139;-60
2021/10/23 02:02:57;;;;;;;4.75;1.50;;;;;;;;;;6277331;22;20226;-61
2021/10/23 02:05:23;;;;;;;7.53;1.83;;;;;;;;;;6276613;22;20187;-60
2021/10/23 02:07:49;;;;;;;10.00;2.10;;;;;;;;;;6277191;22;20139;-60
2021/10/23 02:10:15;;;;;;;6.40;1.48;;;;;;;;;;6277165;22;20177;-60
2021/10/23 02:12:40;;;;;;;6.85;1.50;;;;;;;;;;6276703;22;20543;-61
2021/10/23 02:15:08;;;;;;;6.15;1.67;;;;;;;;;;6276631;22;20552;-60
2021/10/23 02:17:34;;;;;;;8.52;1.67;;;;;;;;;;6276499;22;20144;-60
2021/10/23 02:20:00;;;;;;;9.63;2.05;;;;;;;;;;6276503;22;20235;-59
2021/10/23 02:22:26;;;;;;;6.90;1.70;;;;;;;;;;6276785;22;20147;-59
2021/10/23 02:24:52;;;;;;;9.27;1.98;;;;;;;;;;6276188;22;20463;-60
2021/10/23 02:27:18;;;;;;;9.57;1.92;;;;;;;;;;6276119;22;20155;-57
2021/10/23 02:29:44;;;;;;;11.60;1.63;;;;;;;;;;6276280;22;20158;-60
2021/10/23 02:32:10;;;;;;;10.23;1.88;;;;;;;;;;6276192;22;20140;-60
2021/10/23 02:34:36;;;;;;;8.07;1.75;;;;;;;;;;6276268;22;20144;-60
2021/10/23 02:37:02;;;;;;;9.05;1.52;;;;;;;;;;6276069;22;20152;-59
2021/10/23 02:39:28;;;;;;;9.50;1.75;;;;;;;;;;6276908;22;20174;-60
2021/10/23 02:41:53;;;;;;;8.02;1.92;;;;;;;;;;6276076;22;20547;-59
2021/10/23 02:44:19;;;;;;;6.53;1.73;;;;;;;;;;6249219;22;20206;-59
2021/10/23 02:46:45;;;;;;;9.85;2.17;;;;;;;;;;6276466;22;20144;-60
2021/10/23 02:49:11;;;;;;;9.65;1.88;;;;;;;;;;6276039;22;20202;-60
2021/10/23 02:51:37;;;;;;;8.65;1.77;;;;;;;;;;6276097;22;20132;-61
2021/10/23 02:54:04;;;;;;;9.90;2.00;;;;;;;;;;6276098;22;20143;-59
2021/10/23 02:56:30;;;;;;;10.15;1.80;;;;;;;;;;6275956;22;20140;-61
2021/10/23 02:58:56;;;;;;;8.13;1.80;;;;;;;;;;6277298;22;20167;-61
2021/10/23 03:01:21;;;;;;;10.27;2.10;;;;;;;;;;6278790;22;20174;-61
2021/10/23 03:03:48;;;;;;;9.57;1.70;;;;;;;;;;6276028;22;20238;-60
2021/10/23 03:06:17;;;;;;;11.93;1.90;;;;;;;;;;6276110;22;20178;-61
2021/10/23 03:08:43;;;;;;;9.27;2.53;;;;;;;;;;6276399;22;20434;-61
2021/10/23 03:11:09;;;;;;;15.73;2.17;;;;;;;;;;6275819;22;20164;-61
2021/10/23 03:13:35;;;;;;;13.57;2.28;;;;;;;;;;6275990;22;20210;-61
2021/10/23 03:16:01;;;;;;;7.68;1.90;;;;;;;;;;6275812;22;20458;-61
2021/10/23 03:18:27;;;;;;;14.02;2.03;;;;;;;;;;6276123;22;20209;-61
2021/10/23 03:20:54;;;;;;;11.75;2.33;;;;;;;;;;6276326;22;20140;-61
2021/10/23 03:23:20;;;;;;;7.95;1.75;;;;;;;;;;6276391;22;20147;-61
2021/10/23 03:25:46;;;;;;;8.43;1.58;;;;;;;;;;6275749;22;20175;-61
2021/10/23 03:28:15;;;;;;;7.60;1.70;;;;;;;;;;6277748;22;20431;-60
2021/10/23 03:30:41;;;;;;;8.60;1.70;;;;;;;;;;6279039;22;20225;-61
2021/10/23 03:33:07;;;;;;;9.82;1.90;;;;;;;;;;6278942;22;20143;-61
2021/10/23 03:35:33;;;;;;;14.18;1.95;;;;;;;;;;6279677;22;20163;-61
2021/10/23 03:37:58;;;;;;;8.35;1.55;;;;;;;;;;6279636;22;20158;-61
2021/10/23 03:40:24;;;;;;;12.68;1.58;;;;;;;;;;6279865;22;20237;-61
2021/10/23 03:42:50;;;;;;;6.88;1.70;;;;;;;;;;6279455;22;20140;-61
2021/10/23 03:45:16;;;;;;;13.38;1.98;;;;;;;;;;6278976;22;20160;-60
2021/10/23 03:47:42;;;;;;;10.95;2.03;;;;;;;;;;6279651;22;20168;-61
2021/10/23 03:50:09;;;;;;;9.23;1.98;;;;;;;;;;6279478;22;20140;-61
2021/10/23 03:52:36;;;;;;;8.80;2.10;;;;;;;;;;6278964;22;20171;-61
2021/10/23 03:55:01;;;;;;;8.70;1.58;;;;;;;;;;6278732;22;20654;-60
2021/10/23 03:57:27;;;;;;;13.57;2.30;;;;;;;;;;6278477;22;20144;-61
2021/10/23 03:59:53;;;;;;;10.63;1.80;;;;;;;;;;6279132;22;20173;-61
2021/10/23 04:02:19;;;;;;;7.28;1.63;;;;;;;;;;6278248;22;20559;-60
2021/10/23 04:04:45;;;;;;;4.40;1.50;;;;;;;;;;6278133;22;20160;-61
2021/10/23 04:07:11;;;;;;;8.43;1.52;;;;;;;;;;6277953;22;20143;-61
2021/10/23 04:09:37;;;;;;;6.78;1.30;;;;;;;;;;6278089;22;20496;-61
2021/10/23 04:12:03;;;;;;;7.10;1.35;;;;;;;;;;6278370;22;20154;-61
2021/10/23 04:14:29;;;;;;;9.30;2.28;;;;;;;;;;6278134;22;20154;-61
2021/10/23 04:16:55;;;;;;;8.93;1.58;;;;;;;;;;6278543;22;20163;-61
2021/10/23 04:19:21;;;;;;;11.73;2.13;;;;;;;;;;6278314;22;20143;-61
2021/10/23 04:21:47;;;;;;;6.57;1.80;;;;;;;;;;6278465;22;20483;-61
2021/10/23 04:24:13;;;;;;;10.18;1.67;;;;;;;;;;6278389;22;20140;-60
2021/10/23 04:26:39;;;;;;;16.40;1.88;;;;;;;;;;6277898;22;20167;-61
2021/10/23 04:29:05;;;;;;;7.70;1.50;;;;;;;;;;6278581;22;20396;-61
2021/10/23 04:31:32;;;;;;;9.57;1.55;;;;;;;;;;6278110;22;20147;-61
2021/10/23 04:33:58;;;;;;;11.27;1.92;;;;;;;;;;6278240;22;20136;-61
2021/10/23 04:36:24;;;;;;;12.68;2.40;;;;;;;;;;6277948;22;20147;-61
2021/10/23 04:38:50;;;;;;;9.15;1.58;;;;;;;;;;6277915;22;20593;-61
2021/10/23 04:41:16;;;;;;;9.20;1.42;;;;;;;;;;6277699;22;20454;-61
2021/10/23 04:43:42;;;;;;;11.23;1.65;;;;;;;;;;6277651;22;20159;-62
2021/10/23 04:46:08;;;;;;;7.15;1.50;;;;;;;;;;6277644;22;20164;-61
2021/10/23 04:48:35;;;;;;;6.70;1.48;;;;;;;;;;6277693;22;20162;-60
2021/10/23 04:51:01;;;;;;;7.60;1.50;;;;;;;;;;6278165;22;20219;-59
2021/10/23 04:53:27;;;;;;;8.90;1.52;;;;;;;;;;6277448;22;20167;-59
2021/10/23 04:55:53;;;;;;;8.25;1.73;;;;;;;;;;6277873;22;20144;-61
2021/10/23 04:58:19;;;;;;;11.75;2.10;;;;;;;;;;6277470;22;20205;-61
2021/10/23 05:00:45;;;;;;;10.30;1.90;;;;;;;;;;6277539;22;20182;-61
2021/10/23 05:03:11;;;;;;;9.88;1.83;;;;;;;;;;6277419;22;20144;-60
2021/10/23 05:05:37;;;;;;;10.52;1.55;;;;;;;;;;6277347;22;20163;-61
2021/10/23 05:08:03;;;;;;;9.18;1.65;;;;;;;;;;6277655;22;20176;-61
2021/10/23 05:10:29;;;;;;;11.35;1.70;;;;;;;;;;6277406;22;20136;-61
2021/10/23 05:12:55;;;;;;;6.18;1.50;;;;;;;;;;6277274;22;20205;-61
2021/10/23 05:15:21;;;;;;;8.88;1.48;;;;;;;;;;6277349;22;20556;-61
2021/10/23 05:17:47;;;;;;;6.28;1.42;;;;;;;;;;6277243;22;20222;-61
2021/10/23 05:20:13;;;;;;;7.80;1.65;;;;;;;;;;6277847;22;20579;-61
2021/10/23 05:22:39;;;;;;;7.57;1.70;;;;;;;;;;6277202;22;20144;-61
2021/10/23 05:25:05;;;;;;;9.10;1.77;;;;;;;;;;6277038;22;20195;-61
2021/10/23 05:27:32;;;;;;;4.90;1.27;;;;;;;;;;6277076;22;20154;-61
2021/10/23 05:29:58;;;;;;;6.30;1.70;;;;;;;;;;6277214;22;20298;-61
2021/10/23 05:32:24;;;;;;;8.20;1.83;;;;;;;;;;6277295;22;20488;-61
2021/10/23 05:34:50;;;;;;;7.35;1.52;;;;;;;;;;6277533;22;20148;-61
2021/10/23 05:37:16;;;;;;;9.15;1.48;;;;;;;;;;6276879;22;20222;-61
2021/10/23 05:39:42;;;;;;;7.28;1.77;;;;;;;;;;6277149;22;20194;-61
2021/10/23 05:42:08;;;;;;;10.68;1.75;;;;;;;;;;6276979;22;20591;-60
2021/10/23 05:44:34;;;;;;;5.32;1.40;;;;;;;;;;6276724;22;20264;-61
2021/10/23 05:47:00;;;;;;;10.13;1.83;;;;;;;;;;6277025;22;20447;-60
2021/10/23 05:49:26;;;;;;;9.32;1.75;;;;;;;;;;6276780;22;20140;-61
2021/10/23 05:51:54;;;;;;;10.50;1.80;;;;;;;;;;6277075;22;20182;-61
2021/10/23 05:54:20;;;;;;;5.95;1.23;;;;;;;;;;6277130;22;20144;-61
2021/10/23 05:56:46;;;;;;;8.57;1.60;;;;;;;;;;6276741;22;20396;-61
2021/10/23 05:59:14;;;;;;;11.38;1.60;;;;;;;;;;6277109;22;20136;-61
2021/10/23 06:01:42;;;;;;;11.55;1.92;;;;;;;;;;6276770;22;20335;-61
2021/10/23 06:04:08;;;;;;;9.85;1.70;;;;;;;;;;6277022;22;20179;-61
2021/10/23 06:06:34;;;;;;;5.43;1.30;;;;;;;;;;6276836;22;20154;-61
2021/10/23 06:09:01;;;;;;;6.80;1.40;;;;;;;;;;6276996;22;20140;-61
2021/10/23 06:11:27;;;;;;;9.98;1.55;;;;;;;;;;6276722;22;20144;-61
2021/10/23 06:13:55;;;;;;;15.35;1.75;;;;;;;;;;6276984;22;20485;-60
2021/10/23 06:16:21;;;;;;;9.88;1.92;;;;;;;;;;6277059;22;20143;-59
2021/10/23 06:18:47;;;;;;;9.85;1.75;;;;;;;;;;6276441;22;20466;-60
2021/10/23 06:21:13;;;;;;;10.10;1.60;;;;;;;;;;6277035;22;20156;-61
2021/10/23 06:23:39;;;;;;;6.88;1.33;;;;;;;;;;6276612;22;20140;-60
2021/10/23 06:26:05;;;;;;;9.32;1.58;;;;;;;;;;6276161;22;20175;-59
2021/10/23 06:28:36;;;;;;;9.02;1.65;;;;;;;;;;6276580;22;20162;-59
2021/10/23 06:31:02;;;;;;;6.30;1.52;;;;;;;;;;6276778;22;20124;-60
2021/10/23 06:33:28;;;;;;;7.88;1.75;;;;;;;;;;6276549;22;20165;-60
2021/10/23 06:35:53;;;;;;;10.23;1.63;;;;;;;;;;6276366;22;20226;-59
2021/10/23 06:38:19;;;;;;;6.47;1.20;;;;;;;;;;6276237;22;20144;-60
2021/10/23 06:40:45;;;;;;;5.05;1.52;;;;;;;;;;6276317;22;20170;-59
2021/10/23 06:43:12;;;;;;;8.15;1.65;;;;;;;;;;6276139;22;20144;-59
2021/10/23 06:45:38;;;;;;;10.73;1.88;;;;;;;;;;6276087;22;20246;-60
2021/10/23 06:48:04;;;;;;;12.18;1.90;;;;;;;;;;6276424;22;20139;-60
2021/10/23 06:50:30;;;;;;;7.63;1.65;;;;;;;;;;6276285;22;20166;-60
2021/10/23 06:52:56;;;;;;;7.80;1.88;;;;;;;;;;6276607;22;20147;-60
2021/10/23 06:55:22;;;;;;;9.43;1.52;;;;;;;;;;6276832;22;20151;-60
2021/10/23 06:57:48;;;;;;;6.88;1.70;;;;;;;;;;6276614;22;20616;-59
2021/10/23 07:00:14;;;;;;;5.75;1.52;;;;;;;;;;6277441;22;20222;-60
2021/10/23 07:02:44;;;;;;;10.73;1.85;;;;;;;;;;6277698;22;20155;-60
2021/10/23 07:05:18;;;;;;;7.53;1.83;;;;;;;;;;6276526;22;20242;-60
2021/10/23 07:07:44;;;;;;;7.72;1.85;;;;;;;;;;6276589;22;20128;-60
2021/10/23 07:10:10;;;;;;;8.35;2.05;;;;;;;;;;6276052;22;20150;-60
2021/10/23 07:12:36;;;;;;;7.78;1.55;;;;;;;;;;6276487;22;20140;-60
2021/10/23 07:15:03;;;;;;;5.93;1.73;;;;;;;;;;6276313;22;20440;-60
2021/10/23 07:17:29;;;;;;;9.68;1.98;;;;;;;;;;6276095;22;20148;-58
2021/10/23 07:19:55;;;;;;;6.55;1.85;;;;;;;;;;6276094;22;20139;-60
2021/10/23 07:22:21;;;;;;;8.13;1.48;;;;;;;;;;6276495;22;20147;-60
2021/10/23 07:24:47;;;;;;;6.88;1.50;;;;;;;;;;6275982;22;20191;-60
2021/10/23 07:27:13;;;;;;;8.75;1.65;;;;;;;;;;6276045;22;20453;-60
2021/10/23 07:29:39;;;;;;;9.50;2.05;;;;;;;;;;6276044;22;20162;-60
2021/10/23 07:32:05;;;;;;;13.80;1.60;;;;;;;;;;6276089;22;20136;-60
2021/10/23 07:34:31;;;;;;;8.60;1.55;;;;;;;;;;6276016;22;20589;-60
2021/10/23 07:36:57;;;;;;;10.25;1.52;;;;;;;;;;6276068;22;20143;-60
2021/10/23 07:39:23;;;;;;;9.75;1.88;;;;;;;;;;6276252;22;20570;-60
2021/10/23 07:41:49;;;;;;;8.70;1.70;;;;;;;;;;6276026;22;20140;-60
2021/10/23 07:44:15;;;;;;;8.68;1.70;;;;;;;;;;6276199;22;20143;-60
2021/10/23 07:46:41;;;;;;;4.03;1.30;;;;;;;;;;6277054;22;20219;-60
2021/10/23 07:49:07;;;;;;;12.05;1.75;;;;;;;;;;6276221;22;20151;-59
2021/10/23 07:51:39;;;;;;;9.45;1.75;;;;;;;;;;6276464;22;20563;-60
2021/10/23 07:54:06;;;;;;;8.52;1.90;;;;;;;;;;6276503;22;20483;-60
2021/10/23 07:56:32;;;;;;;9.23;1.80;;;;;;;;;;6276753;22;20144;-60
2021/10/23 07:58:59;;;;;;;8.65;1.85;;;;;;;;;;6276343;22;20154;-59
2021/10/23 08:01:26;;;;;;;9.30;1.88;;;;;;;;;;6276449;22;20151;-59
2021/10/23 08:03:52;;;;;;;14.15;2.45;;;;;;;;;;6276681;22;20139;-60
2021/10/23 08:06:18;;;;;;;11.48;2.20;;;;;;;;;;6276253;22;20163;-60
2021/10/23 08:08:43;;;;;;;9.02;2.55;;;;;;;;;;6276320;22;20135;-60
2021/10/23 08:11:09;;;;;;;13.90;2.42;;;;;;;;;;6276373;22;20189;-60
2021/10/23 08:13:36;;;;;;;9.82;2.50;;;;;;;;;;6277202;22;20171;-60
2021/10/23 08:16:02;;;;;;;11.45;2.13;;;;;;;;;;6278478;22;20817;-60
2021/10/23 08:18:29;;;;;;;7.68;2.05;;;;;;;;;;6278481;22;20219;-60
2021/10/23 08:20:55;;;;;;;8.85;2.35;;;;;;;;;;6278848;22;20148;-60
2021/10/23 08:23:22;;;;;;;8.82;2.90;;;;;;;;;;6278999;22;20547;-60
2021/10/23 08:25:48;;;;;;;8.18;2.67;;;;;;;;;;6278518;22;20622;-60
2021/10/23 08:28:14;;;;;;;13.95;3.20;;;;;;;;;;6278504;22;20167;-59
2021/10/23 08:30:41;;;;;;;9.63;3.40;;;;;;;;;;6278619;22;20226;-60
2021/10/23 08:33:07;;;;;;;12.25;3.42;;;;;;;;;;6278922;22;20496;-60
2021/10/23 08:35:33;;;;;;;9.65;2.83;;;;;;;;;;6278709;22;20543;-60
2021/10/23 08:37:59;;;;;;;12.02;3.45;;;;;;;;;;6278677;22;20150;-59
2021/10/23 08:40:26;;;;;;;11.55;2.10;;;;;;;;;;6278987;22;20147;-60
2021/10/23 08:42:53;;;;;;;10.18;2.53;;;;;;;;;;6278577;22;20146;-60
2021/10/23 08:45:18;;;;;;;12.43;2.25;;;;;;;;;;6278239;22;20167;-60
2021/10/23 08:47:45;;;;;;;12.23;1.58;;;;;;;;;;6278716;22;20222;-60
2021/10/23 08:50:14;;;;;;;5.72;1.20;;;;;;;;;;6278089;22;20423;-61
2021/10/23 08:52:47;;;;;;;8.30;1.52;;;;;;;;;;6278353;22;20140;-60
2021/10/23 08:55:13;;;;;;;7.45;1.85;;;;;;;;;;6277562;22;20206;-61
2021/10/23 08:57:39;;;;;;;6.55;1.40;;;;;;;;;;6278192;22;20148;-62
2021/10/23 09:00:05;;;;;;;11.23;1.60;;;;;;;;;;6278054;22;20153;-61
2021/10/23 09:02:32;;;;;;;7.65;1.80;;;;;;;;;;6278068;22;20154;-61
2021/10/23 09:04:58;;;;;;;5.93;1.65;;;;;;;;;;6277878;22;20499;-61
2021/10/23 09:07:25;;;;;;;8.35;1.58;;;;;;;;;;6278056;22;20177;-61
2021/10/23 09:10:06;;;;;;;6.75;1.80;;;;;;;;;;6278294;22;20292;-61
2021/10/23 09:12:33;;;;;;;7.97;1.80;;;;;;;;;;6278080;22;20128;-60
2021/10/23 09:15:12;;;;;;;6.45;1.48;;;;;;;;;;6277839;22;20147;-61
2021/10/23 09:17:47;;;;;;;6.35;1.48;;;;;;;;;;6278060;22;20451;-61
2021/10/23 09:20:15;;;;;;;5.38;1.23;;;;;;;;;;6277858;22;20127;-60
2021/10/23 09:22:42;;;;;;;9.38;1.70;;;;;;;;;;6278277;22;20140;-61
2021/10/23 09:25:22;;;;;;;7.85;1.80;;;;;;;;;;6277194;22;20180;-61
2021/10/23 09:27:55;;;;;;;8.38;1.77;;;;;;;;;;6277897;22;20593;-61
2021/10/23 09:30:24;;;;;;;7.55;1.52;;;;;;;;;;6278007;22;20151;-61
2021/10/23 09:32:51;;;;;;;7.10;1.50;;;;;;;;;;6278105;22;20417;-61
2021/10/23 09:35:17;;;;;;;6.30;1.30;;;;;;;;;;6277904;22;20221;-61
2021/10/23 09:37:44;;;;;;;9.90;1.83;;;;;;;;;;6277616;22;20646;-61
2021/10/23 09:40:10;;;;;;;6.03;1.60;;;;;;;;;;6277615;22;20143;-61
2021/10/23 09:42:36;;;;;;;6.70;1.58;;;;;;;;;;6277776;22;20196;-61
2021/10/23 09:45:04;;;;;;;7.22;1.50;;;;;;;;;;6277160;22;20168;-61
2021/10/23 09:47:31;;;;;;;5.72;1.42;;;;;;;;;;6277834;22;20468;-60
2021/10/23 09:50:04;;;;;;;5.18;1.23;;;;;;;;;;6277647;22;20140;-61
2021/10/23 09:52:32;;;;;;;5.38;0.98;;;;;;;;;;6277204;22;20216;-61
2021/10/23 09:55:08;;;;;;;5.72;1.60;;;;;;;;;;6277188;22;20157;-61
2021/10/23 09:57:33;;;;;;;8.95;1.67;;;;;;;;;;6277235;22;20139;-61
2021/10/23 10:00:11;;;;;;;6.18;1.38;;;;;;;;;;6277689;22;20230;-61
2021/10/23 10:02:39;;;;;;;7.50;1.48;;;;;;;;;;6277174;22;20590;-60
2021/10/23 10:05:05;;;;;;;7.07;1.73;;;;;;;;;;6277569;22;20238;-60
2021/10/23 10:07:32;;;;;;;9.20;1.75;;;;;;;;;;6277611;22;20423;-60
2021/10/23 10:09:59;;;;;;;7.22;1.50;;;;;;;;;;6277498;22;20197;-60
2021/10/23 10:12:25;;;;;;;8.82;1.52;;;;;;;;;;6277154;22;20139;-60
2021/10/23 10:14:51;;;;;;;5.93;1.33;;;;;;;;;;6277289;22;20139;-60
2021/10/23 10:17:17;;;;;;;5.60;1.75;;;;;;;;;;6276928;22;20139;-61
2021/10/23 10:19:43;;;;;;;12.07;1.55;;;;;;;;;;6276980;22;20151;-59
2021/10/23 10:22:09;;;;;;;8.30;1.60;;;;;;;;;;6276921;22;20261;-59
2021/10/23 10:24:37;;;;;;;6.40;1.50;;;;;;;;;;6276834;22;20185;-58
2021/10/23 10:27:05;;;;;;;4.90;1.60;;;;;;;;;;6276745;22;20586;-59
2021/10/23 10:29:51;;;;;;;7.50;1.30;;;;;;;;;;6276711;22;20147;-60
2021/10/23 10:32:27;;;;;;;4.93;1.30;;;;;;;;;;6277123;22;20127;-60
2021/10/23 10:40:28;;;;;;;8.60;1.35;;;;;;;;;;6287324;22;20147;-60
2021/10/23 10:42:58;;;;;;;6.15;1.70;;;;;;;;;;6276959;22;20234;-57
2021/10/23 10:45:24;;;;;;;4.95;1.30;;;;;;;;;;6276895;22;20198;-59
2021/10/23 10:48:09;;;;;;;5.70;1.50;;;;;;;;;;6276643;22;20548;-60
2021/10/23 10:50:53;;;;;;;7.18;1.52;;;;;;;;;;6276945;22;20143;-59
2021/10/23 10:53:29;;;;;;;7.22;1.50;;;;;;;;;;6276447;22;20366;-61
2021/10/23 10:55:58;;;;;;;7.28;1.27;;;;;;;;;;6276501;22;20140;-61
2021/10/23 10:58:41;;;;;;;8.00;1.80;;;;;;;;;;6276584;22;20227;-61
2021/10/23 11:01:17;;;;;;;7.88;1.50;;;;;;;;;;6276783;22;20151;-60
2021/10/23 11:03:43;;;;;;;9.55;1.67;;;;;;;;;;6276871;22;20147;-61
2021/10/23 11:06:32;;;;;;;6.32;1.27;;;;;;;;;;6277122;22;20167;-62
2021/10/23 11:09:16;;;;;;;7.18;1.63;;;;;;;;;;6276715;22;20159;-62
2021/10/23 11:11:45;;;;;;;9.82;1.80;;;;;;;;;;6276500;22;20222;-63
2021/10/23 11:14:11;;;;;;;8.10;1.52;;;;;;;;;;6276622;22;20326;-61
2021/10/23 11:16:37;;;;;;;7.65;1.50;;;;;;;;;;6276132;22;20196;-60
2021/10/23 11:19:04;;;;;;;8.30;1.73;;;;;;;;;;6276562;22;20143;-61
2021/10/23 11:21:34;;;;;;;7.55;1.65;;;;;;;;;;6276249;22;20166;-61
2021/10/23 11:24:00;;;;;;;8.07;1.40;;;;;;;;;;6276238;22;20139;-63
2021/10/23 11:26:26;;;;;;;6.57;1.50;;;;;;;;;;6275859;22;20179;-63
2021/10/23 11:28:52;;;;;;;7.53;1.38;;;;;;;;;;6276571;22;20151;-63
2021/10/23 11:31:21;;;;;;;6.70;1.40;;;;;;;;;;6276141;22;20568;-63
2021/10/23 11:33:47;;;;;;;8.77;2.00;;;;;;;;;;6276857;22;20143;-63
2021/10/23 11:36:13;;;;;;;9.02;2.55;;;;;;;;;;6276177;22;20174;-63
2021/10/23 11:38:40;;;;;;;5.55;1.92;;;;;;;;;;6276280;22;20139;-62
2021/10/23 11:41:06;;;;;;;6.22;1.60;;;;;;;;;;6276412;22;20147;-63
2021/10/23 11:43:39;;;;;;;7.35;1.80;;;;;;;;;;6277291;22;20230;-63
2021/10/23 11:46:06;;;;;;;6.18;1.58;;;;;;;;;;6277425;22;20216;-64
2021/10/23 11:48:32;;;;;;;5.90;1.55;;;;;;;;;;6276851;22;20150;-63
2021/10/23 11:50:58;;;;;;;4.32;1.50;;;;;;;;;;6278179;22;20579;-63
2021/10/23 11:53:31;;;;;;;10.82;1.27;;;;;;;;;;6278877;22;20139;-63
2021/10/23 11:56:03;;;;;;;10.30;1.65;;;;;;;;;;6279606;22;20147;-63
2021/10/23 11:58:34;;;;;;;6.75;1.42;;;;;;;;;;6278623;22;20600;-63
2021/10/23 12:01:01;;;;;;;6.13;1.38;;;;;;;;;;6278549;22;20222;-63
2021/10/23 12:03:29;;;;;;;8.40;1.40;;;;;;;;;;6278304;22;20154;-63
2021/10/23 12:05:55;;;;;;;7.55;1.52;;;;;;;;;;6278008;22;20199;-61
2021/10/23 12:08:30;;;;;;;7.38;1.48;;;;;;;;;;6277880;22;20136;-63
2021/10/23 12:11:09;;;;;;;7.05;1.58;;;;;;;;;;6277967;22;20571;-63
2021/10/23 12:13:45;;;;;;;4.40;1.13;;;;;;;;;;6277720;22;20257;-63
2021/10/23 12:16:12;;;;;;;4.03;1.20;;;;;;;;;;6277747;22;20602;-63
2021/10/23 12:18:39;;;;;;;8.52;1.48;;;;;;;;;;6277727;22;20222;-63
2021/10/23 12:21:11;;;;;;;6.78;1.38;;;;;;;;;;6277810;22;20141;-63
2021/10/23 12:23:40;;;;;;;6.30;1.35;;;;;;;;;;6278172;22;20158;-62
2021/10/23 12:26:07;;;;;;;6.43;1.30;;;;;;;;;;6277681;22;20175;-63
2021/10/23 12:28:52;;;;;;;7.68;1.35;;;;;;;;;;6278062;22;20175;-63
2021/10/23 12:31:18;;;;;;;8.65;1.33;;;;;;;;;;6277746;22;20459;-62
2021/10/23 12:34:01;;;;;;;5.93;1.25;;;;;;;;;;6277766;22;20167;-63
2021/10/23 12:36:26;;;;;;;8.55;1.85;;;;;;;;;;6278047;22;20158;-63
2021/10/23 12:38:52;;;;;;;5.63;1.25;;;;;;;;;;6277735;22;20143;-62
2021/10/23 12:41:18;;;;;;;10.70;1.70;;;;;;;;;;6278259;22;20533;-62
2021/10/23 12:43:45;;;;;;;6.53;1.25;;;;;;;;;;6278169;22;20555;-63
2021/10/23 12:46:12;;;;;;;5.65;1.35;;;;;;;;;;6278015;22;20159;-63
2021/10/23 12:48:37;;;;;;;7.75;1.73;;;;;;;;;;6278462;22;20158;-63
2021/10/23 12:51:04;;;;;;;8.05;1.73;;;;;;;;;;6277774;22;20440;-63
2021/10/23 12:53:30;;;;;;;7.15;1.48;;;;;;;;;;6277846;22;20154;-63
2021/10/23 12:55:56;;;;;;;6.97;1.33;;;;;;;;;;6277604;22;20143;-63
2021/10/23 12:58:21;;;;;;;7.80;1.77;;;;;;;;;;6277372;22;20140;-62
2021/10/23 13:00:48;;;;;;;5.60;1.25;;;;;;;;;;6250551;22;20152;-63
2021/10/23 13:03:16;;;;;;;10.98;1.60;;;;;;;;;;6277757;22;20487;-63
2021/10/23 13:05:42;;;;;;;6.95;1.25;;;;;;;;;;6277894;22;20167;-62
2021/10/23 13:08:08;;;;;;;9.45;1.60;;;;;;;;;;6277442;22;20193;-63
2021/10/23 13:10:34;;;;;;;6.65;1.50;;;;;;;;;;6278004;22;20554;-63
2021/10/23 13:13:00;;;;;;;6.82;1.55;;;;;;;;;;6277893;22;20222;-63
2021/10/23 13:15:25;;;;;;;8.45;1.60;;;;;;;;;;6278212;22;20140;-62
2021/10/23 13:17:52;;;;;;;5.28;1.55;;;;;;;;;;6278348;22;20551;-62
2021/10/23 13:20:17;;;;;;;6.10;1.58;;;;;;;;;;6278405;22;20147;-62
2021/10/23 13:22:45;;;;;;;5.05;1.50;;;;;;;;;;6277630;22;20437;-62
2021/10/23 13:25:11;;;;;;;8.52;1.50;;;;;;;;;;6277948;22;20178;-62
2021/10/23 13:27:37;;;;;;;5.80;1.50;;;;;;;;;;6277669;22;20147;-62
2021/10/23 13:30:04;;;;;;;7.75;1.80;;;;;;;;;;6278612;22;20147;-63
2021/10/23 13:32:30;;;;;;;5.68;1.48;;;;;;;;;;6278362;22;20140;-63
2021/10/23 13:34:56;;;;;;;7.82;1.65;;;;;;;;;;6277733;22;20286;-63
2021/10/23 13:37:22;;;;;;;8.82;1.60;;;;;;;;;;6277827;22;20184;-63
2021/10/23 13:39:48;;;;;;;5.88;1.15;;;;;;;;;;6277735;22;20186;-63
2021/10/23 13:42:14;;;;;;;8.23;1.90;;;;;;;;;;6277765;22;20151;-64
2021/10/23 13:44:40;;;;;;;6.97;1.20;;;;;;;;;;6278317;22;20148;-63
2021/10/23 13:47:06;;;;;;;6.82;1.60;;;;;;;;;;6278106;22;20194;-63
2021/10/23 13:49:32;;;;;;;7.95;1.60;;;;;;;;;;6277969;22;20563;-62
2021/10/23 13:51:58;;;;;;;7.47;1.45;;;;;;;;;;6277727;22;20605;-63
2021/10/23 13:54:24;;;;;;;5.85;1.58;;;;;;;;;;6277379;22;20166;-63
2021/10/23 13:56:49;;;;;;;6.45;1.20;;;;;;;;;;6277843;22;20227;-63
2021/10/23 13:59:15;;;;;;;3.50;1.25;;;;;;;;;;6277490;22;20147;-63
2021/10/23 14:01:41;;;;;;;8.02;1.70;;;;;;;;;;6277079;22;20140;-63
2021/10/23 14:04:07;;;;;;;3.97;1.33;;;;;;;;;;6277188;22;20162;-63
2021/10/23 14:06:33;;;;;;;7.82;1.50;;;;;;;;;;6277168;22;20246;-63
2021/10/23 14:08:59;;;;;;;6.25;1.30;;;;;;;;;;6276991;22;20143;-63
2021/10/23 14:11:25;;;;;;;10.10;2.20;;;;;;;;;;6277084;22;20167;-60
2021/10/23 14:13:51;;;;;;;7.75;1.67;;;;;;;;;;6276999;22;20559;-63
2021/10/23 14:16:17;;;;;;;8.35;1.77;;;;;;;;;;6277191;22;20152;-61
2021/10/23 14:18:43;;;;;;;8.55;1.63;;;;;;;;;;6276794;22;20175;-63
2021/10/23 14:21:11;;;;;;;8.05;1.55;;;;;;;;;;6277153;22;20170;-62
2021/10/23 14:23:38;;;;;;;8.43;1.80;;;;;;;;;;6277017;22;20151;-63
2021/10/23 14:26:04;;;;;;;8.82;1.73;;;;;;;;;;6277005;22;20176;-63
2021/10/23 14:28:40;;;;;;;6.63;1.40;;;;;;;;;;6277278;22;20136;-63
2021/10/23 14:31:12;;;;;;;5.97;1.60;;;;;;;;;;6277659;22;20131;-63
2021/10/23 14:33:38;;;;;;;6.07;1.63;;;;;;;;;;6277009;22;20170;-63
2021/10/23 14:36:06;;;;;;;6.00;1.40;;;;;;;;;;6277555;22;20168;-61
2021/10/23 14:38:32;;;;;;;7.07;1.63;;;;;;;;;;6276997;22;20186;-63
2021/10/23 14:40:58;;;;;;;6.50;1.60;;;;;;;;;;6277540;22;20498;-63
2021/10/23 14:43:24;;;;;;;14.63;1.55;;;;;;;;;;6276572;22;20574;-62
2021/10/23 14:45:50;;;;;;;8.82;1.40;;;;;;;;;;6277153;22;20164;-63